Time;durP1;ratioP1;P1;durP2;ratioP2;P2;SDS_P1;SDS_P2;PMS_P1;PMS_P2;Temp;Humidity;BMP_temperature;BMP_pressure;BME280_temperature;BME280_humidity;BME280_pressure;Samples;Min_cycle;Max_cycle;Signal;HPM_P1;HPM_P2
2022/09/10 00:00:57;;;;;;;18.65;7.20;;;;;;;14.22;100.00;100838.69;4937592;28;20146;-70
2022/09/10 00:03:23;;;;;;;19.48;7.82;;;;;;;14.24;100.00;100837.59;4926952;28;20122;-69
2022/09/10 00:05:49;;;;;;;13.68;7.40;;;;;;;14.25;100.00;100836.59;4925673;28;20135;-70
2022/09/10 00:08:16;;;;;;;16.80;7.95;;;;;;;14.29;100.00;100833.69;4931856;28;20039;-70
2022/09/10 00:10:48;;;;;;;20.65;7.78;;;;;;;14.28;100.00;100837.38;4946046;28;20761;-69
2022/09/10 00:13:17;;;;;;;14.27;7.50;;;;;;;14.29;100.00;100834.53;4930026;28;20143;-70
2022/09/10 00:15:46;;;;;;;16.52;7.45;;;;;;;14.25;100.00;100839.28;4920270;28;20027;-70
2022/09/10 00:18:13;;;;;;;17.80;7.85;;;;;;;14.29;100.00;100836.38;4935414;28;20050;-70
2022/09/10 00:20:43;;;;;;;16.55;6.90;;;;;;;14.33;100.00;100837.84;4927033;28;20210;-70
2022/09/10 00:23:09;;;;;;;14.73;7.38;;;;;;;14.40;100.00;100831.00;4945628;28;20117;-70
2022/09/10 00:25:34;;;;;;;16.02;6.82;;;;;;;14.41;100.00;100832.75;4931338;28;20091;-71
2022/09/10 00:28:00;;;;;;;18.67;7.13;;;;;;;14.42;100.00;100832.63;4930008;28;20039;-70
2022/09/10 00:30:26;;;;;;;20.08;7.43;;;;;;;14.42;100.00;100837.97;4923617;28;20624;-70
2022/09/10 00:32:52;;;;;;;22.35;8.43;;;;;;;14.47;100.00;100833.13;4937353;28;20046;-71
2022/09/10 00:35:21;;;;;;;23.25;8.00;;;;;;;14.39;100.00;100832.00;4940764;28;20973;-70
2022/09/10 00:37:46;;;;;;;15.63;7.75;;;;;;;14.40;100.00;100836.38;4927218;29;20202;-71
2022/09/10 00:40:15;;;;;;;19.20;9.15;;;;;;;14.45;100.00;100837.72;4931763;28;20027;-71
2022/09/10 00:42:42;;;;;;;19.50;9.23;;;;;;;14.48;100.00;100828.63;4932199;28;20116;-70
2022/09/10 00:45:22;;;;;;;16.25;8.60;;;;;;;14.54;100.00;100840.69;4937879;28;20123;-70
2022/09/10 00:47:50;;;;;;;16.75;8.15;;;;;;;14.59;100.00;100835.78;4925088;28;20039;-70
2022/09/10 00:50:33;;;;;;;20.15;9.57;;;;;;;14.60;100.00;100840.19;4928069;28;20031;-70
2022/09/10 00:53:07;;;;;;;16.05;8.88;;;;;;;14.68;100.00;100830.53;4931349;28;20086;-71
2022/09/10 00:55:36;;;;;;;12.68;8.25;;;;;;;14.70;100.00;100830.41;4947458;28;20062;-70
2022/09/10 00:58:07;;;;;;;16.50;8.52;;;;;;;14.69;100.00;100837.63;4931720;28;20040;-70
2022/09/10 01:00:32;;;;;;;24.15;8.95;;;;;;;14.65;100.00;100830.78;4944810;28;20043;-70
2022/09/10 01:02:58;;;;;;;26.25;9.48;;;;;;;14.65;100.00;100825.41;4926915;28;20035;-70
2022/09/10 01:05:25;;;;;;;20.50;10.43;;;;;;;14.62;100.00;100830.19;4946657;28;20690;-71
2022/09/10 01:07:51;;;;;;;19.27;9.63;;;;;;;14.68;100.00;100832.38;4933265;28;20524;-71
2022/09/10 01:10:23;;;;;;;22.83;9.10;;;;;;;14.69;100.00;100826.03;4945532;28;20253;-71
2022/09/10 01:13:03;;;;;;;22.58;10.35;;;;;;;14.73;100.00;100830.19;4944495;28;20127;-70
2022/09/10 01:15:55;;;;;;;24.00;10.50;;;;;;;14.71;100.00;100827.63;4939566;28;20043;-69
2022/09/10 01:18:39;;;;;;;18.10;9.98;;;;;;;14.74;100.00;100824.69;4931732;28;20062;-71
2022/09/10 01:21:22;;;;;;;18.08;10.60;;;;;;;14.88;100.00;100823.56;4951798;28;20046;-70
2022/09/10 01:24:15;;;;;;;22.42;10.77;;;;;;;14.80;100.00;100830.53;4949556;28;20188;-70
2022/09/10 01:27:00;;;;;;;37.38;12.93;;;;;;;14.77;100.00;100831.63;4932846;28;20055;-70
2022/09/10 01:29:31;;;;;;;24.90;12.63;;;;;;;14.82;100.00;100831.28;4932387;29;20362;-69
2022/09/10 01:32:22;;;;;;;27.15;14.20;;;;;;;14.81;100.00;100826.84;4947334;28;20039;-71
2022/09/10 01:35:13;;;;;;;30.98;14.02;;;;;;;14.89;100.00;100836.00;4955135;28;20054;-71
2022/09/10 01:37:43;;;;;;;28.55;13.38;;;;;;;14.86;100.00;100846.13;4941104;28;20039;-70
2022/09/10 01:40:09;;;;;;;28.83;14.98;;;;;;;14.87;100.00;100839.81;4944520;28;20035;-70
2022/09/10 01:42:38;;;;;;;28.40;13.90;;;;;;;14.90;100.00;100843.06;4946536;28;20031;-71
2022/09/10 01:45:05;;;;;;;27.42;14.52;;;;;;;14.95;100.00;100843.53;4936024;28;20811;-71
2022/09/10 01:47:41;;;;;;;31.58;15.23;;;;;;;14.93;100.00;100840.16;4940166;28;20055;-70
2022/09/10 01:50:33;;;;;;;35.05;16.05;;;;;;;15.00;100.00;100840.50;4941496;28;20036;-70
2022/09/10 01:53:29;;;;;;;25.75;13.52;;;;;;;14.93;100.00;100839.28;4938735;28;20039;-70
2022/09/10 01:56:20;;;;;;;28.27;15.18;;;;;;;14.92;100.00;100842.97;4930786;28;20082;-70
2022/09/10 01:58:47;;;;;;;29.75;15.48;;;;;;;14.96;100.00;100833.66;4955396;28;20047;-70
2022/09/10 02:01:43;;;;;;;33.25;15.60;;;;;;;14.94;100.00;100830.25;4956669;28;20039;-70
2022/09/10 02:04:13;;;;;;;33.85;15.15;;;;;;;14.99;100.00;100834.25;4953408;28;20109;-69
2022/09/10 02:06:42;;;;;;;29.73;14.55;;;;;;;14.96;100.00;100837.22;4941233;28;20054;-70
2022/09/10 02:09:11;;;;;;;27.80;15.38;;;;;;;15.01;100.00;100834.16;4932304;28;20150;-71
2022/09/10 02:12:03;;;;;;;29.95;15.77;;;;;;;14.93;100.00;100828.56;4944335;28;20038;-70
2022/09/10 02:14:54;;;;;;;31.65;14.73;;;;;;;14.92;100.00;100833.06;4938190;28;20600;-70
2022/09/10 02:17:52;;;;;;;30.13;15.18;;;;;;;14.98;100.00;100835.25;4925754;29;20049;-71
2022/09/10 02:20:19;;;;;;;26.17;13.13;;;;;;;14.97;100.00;100830.88;4953044;28;20035;-71
2022/09/10 02:22:52;;;;;;;28.58;14.73;;;;;;;15.00;100.00;100827.91;4931915;28;20036;-71
2022/09/10 02:25:18;;;;;;;30.40;14.80;;;;;;;14.97;100.00;100830.88;4918147;28;20035;-70
2022/09/10 02:27:44;;;;;;;28.75;14.07;;;;;;;14.98;100.00;100832.56;4937504;29;20094;-70
2022/09/10 02:30:10;;;;;;;25.63;14.80;;;;;;;14.98;100.00;100829.03;4935298;28;20054;-70
2022/09/10 02:32:36;;;;;;;30.30;14.98;;;;;;;14.95;100.00;100829.28;4939457;28;20059;-71
2022/09/10 02:35:01;;;;;;;27.15;11.77;;;;;;;15.01;100.00;100818.91;4947449;28;20842;-70
2022/09/10 02:37:27;;;;;;;25.15;15.13;;;;;;;14.97;100.00;100824.66;4959980;28;20027;-70
2022/09/10 02:39:54;;;;;;;28.00;13.43;;;;;;;14.99;100.00;100828.03;4940947;28;20074;-70
2022/09/10 02:42:21;;;;;;;29.17;14.20;;;;;;;14.99;100.00;100831.59;4950506;28;20353;-70
2022/09/10 02:44:46;;;;;;;22.85;14.10;;;;;;;14.95;100.00;100834.63;4941200;28;20042;-70
2022/09/10 02:47:12;;;;;;;27.75;12.85;;;;;;;14.99;100.00;100830.72;4929534;29;20028;-71
2022/09/10 02:49:38;;;;;;;31.08;13.38;;;;;;;14.97;100.00;100830.00;4929365;29;20544;-70
2022/09/10 02:52:05;;;;;;;27.23;13.93;;;;;;;15.07;100.00;100836.34;4950186;28;20032;-71
2022/09/10 02:54:32;;;;;;;22.15;12.63;;;;;;;15.05;100.00;100830.22;4940058;28;20030;-71
2022/09/10 02:56:57;;;;;;;31.10;13.77;;;;;;;15.06;100.00;100828.38;4942938;28;20027;-70
2022/09/10 02:59:23;;;;;;;28.25;12.18;;;;;;;15.03;100.00;100826.81;4936752;28;20863;-70
2022/09/10 03:01:49;;;;;;;21.73;12.23;;;;;;;15.04;100.00;100828.53;4959025;28;20046;-71
2022/09/10 03:04:16;;;;;;;30.17;12.50;;;;;;;15.06;100.00;100828.38;4933633;28;20051;-71
2022/09/10 03:06:42;;;;;;;27.17;13.48;;;;;;;15.03;100.00;100829.50;4960621;28;20027;-71
2022/09/10 03:09:08;;;;;;;31.30;14.38;;;;;;;15.01;100.00;100829.63;4940855;28;20050;-71
2022/09/10 03:11:39;;;;;;;36.90;14.07;;;;;;;15.05;100.00;100832.06;4945899;28;20035;-72
2022/09/10 03:14:07;;;;;;;33.22;13.73;;;;;;;15.03;100.00;100829.50;4943133;28;20094;-71
2022/09/10 03:16:32;;;;;;;33.20;13.88;;;;;;;14.99;100.00;100830.72;4933635;28;20028;-70
2022/09/10 03:19:00;;;;;;;28.67;14.57;;;;;;;15.05;100.00;100827.53;4938486;28;20055;-70
2022/09/10 03:21:25;;;;;;;26.35;14.07;;;;;;;15.00;100.00;100827.91;4927204;28;20039;-71
2022/09/10 03:23:52;;;;;;;31.60;14.80;;;;;;;14.96;100.00;100829.16;4941389;28;20039;-71
2022/09/10 03:26:24;;;;;;;25.63;14.65;;;;;;;15.00;100.00;100827.06;4961717;28;20039;-71
2022/09/10 03:28:50;;;;;;;29.52;14.20;;;;;;;14.94;100.00;100822.19;4938275;28;20078;-71
2022/09/10 03:31:18;;;;;;;37.42;15.75;;;;;;;15.00;100.00;100824.38;4938639;28;20070;-70
2022/09/10 03:33:46;;;;;;;37.20;15.20;;;;;;;15.08;100.00;100827.28;4954352;28;20039;-70
2022/09/10 03:36:12;;;;;;;27.42;15.30;;;;;;;15.02;100.00;100831.34;4949232;28;20050;-71
2022/09/10 03:38:39;;;;;;;29.25;14.18;;;;;;;15.05;100.00;100827.53;4957833;28;20035;-71
2022/09/10 03:41:04;;;;;;;33.72;14.35;;;;;;;15.15;100.00;100830.31;4949247;28;20023;-70
2022/09/10 03:43:30;;;;;;;29.90;14.60;;;;;;;15.15;100.00;100827.63;4934124;28;20058;-71
2022/09/10 03:45:56;;;;;;;28.02;14.95;;;;;;;15.09;100.00;100814.72;4938435;28;20839;-71
2022/09/10 03:48:22;;;;;;;25.13;13.80;;;;;;;15.16;100.00;100821.28;4948893;28;20027;-71
2022/09/10 03:50:49;;;;;;;37.60;15.30;;;;;;;15.15;100.00;100817.72;4934696;29;20051;-72
2022/09/10 03:53:17;;;;;;;25.60;14.32;;;;;;;15.14;100.00;100825.94;4956869;28;20065;-71
2022/09/10 03:55:47;;;;;;;30.20;14.85;;;;;;;15.18;100.00;100827.38;4938380;28;20052;-70
2022/09/10 03:58:16;;;;;;;32.97;15.40;;;;;;;15.17;100.00;100820.31;4939610;28;20042;-71
2022/09/10 04:00:44;;;;;;;31.25;15.95;;;;;;;15.18;100.00;100819.31;4931487;28;20071;-71
2022/09/10 04:03:10;;;;;;;27.83;14.43;;;;;;;15.11;100.00;100824.38;4931415;28;20076;-69
2022/09/10 04:05:39;;;;;;;26.88;14.98;;;;;;;15.18;100.00;100817.50;4932305;28;20043;-71
2022/09/10 04:08:06;;;;;;;27.00;15.20;;;;;;;15.16;100.00;100819.47;4935614;28;20087;-71
2022/09/10 04:10:32;;;;;;;30.30;15.55;;;;;;;15.17;100.00;100821.16;4953049;28;20050;-71
2022/09/10 04:12:58;;;;;;;32.15;15.52;;;;;;;15.14;100.00;100817.88;4937925;28;20035;-71
2022/09/10 04:15:24;;;;;;;24.38;13.95;;;;;;;15.22;100.00;100826.16;4944474;28;20137;-70
2022/09/10 04:17:51;;;;;;;32.40;16.50;;;;;;;15.21;100.00;100825.31;4949137;28;20040;-71
2022/09/10 04:20:24;;;;;;;34.03;15.35;;;;;;;15.18;100.00;100822.00;4930372;28;20677;-71
2022/09/10 04:22:55;;;;;;;31.65;15.73;;;;;;;15.19;100.00;100818.34;4940741;28;20031;-71
2022/09/10 04:25:22;;;;;;;29.45;15.80;;;;;;;15.27;100.00;100823.94;4945117;28;20039;-72
2022/09/10 04:27:48;;;;;;;29.33;15.75;;;;;;;15.24;100.00;100824.19;4922002;28;20031;-71
2022/09/10 04:30:14;;;;;;;28.02;15.40;;;;;;;15.19;100.00;100821.03;4937937;28;20035;-71
2022/09/10 04:32:40;;;;;;;31.02;15.63;;;;;;;15.25;100.00;100821.34;4944065;28;20038;-71
2022/09/10 04:35:06;;;;;;;30.77;15.23;;;;;;;15.23;100.00;100823.34;4980167;23;20066;-69
2022/09/10 04:37:33;;;;;;;29.40;15.10;;;;;;;15.21;100.00;100821.75;4984228;28;20038;-68
2022/09/10 04:40:05;;;;;;;38.42;16.33;;;;;;;15.26;100.00;100822.22;4977901;28;20769;-69
2022/09/10 04:42:34;;;;;;;31.02;16.08;;;;;;;15.27;100.00;100816.72;4978038;28;20895;-69
2022/09/10 04:44:59;;;;;;;30.42;14.95;;;;;;;15.26;100.00;100822.22;4977093;28;20046;-69
2022/09/10 04:47:26;;;;;;;24.30;14.23;;;;;;;15.28;100.00;100831.88;4964129;28;20855;-68
2022/09/10 04:49:51;;;;;;;29.05;15.13;;;;;;;15.23;100.00;100826.03;4974597;28;20034;-69
2022/09/10 04:52:24;;;;;;;27.70;15.48;;;;;;;15.28;100.00;100831.00;4977674;28;20084;-68
2022/09/10 04:54:50;;;;;;;28.58;14.45;;;;;;;15.30;100.00;100823.66;4974256;28;20453;-69
2022/09/10 04:57:24;;;;;;;26.15;15.32;;;;;;;15.28;100.00;100833.69;4971914;28;20070;-69
2022/09/10 04:59:53;;;;;;;28.15;16.15;;;;;;;15.29;100.00;100821.97;4952693;28;20043;-68
2022/09/10 05:02:23;;;;;;;25.40;14.68;;;;;;;15.24;100.00;100829.56;4967036;28;20432;-69
2022/09/10 05:04:49;;;;;;;26.75;15.25;;;;;;;15.23;100.00;100830.53;4979195;28;20042;-68
2022/09/10 05:07:15;;;;;;;26.65;14.68;;;;;;;15.21;100.00;100830.69;4971652;28;20038;-68
2022/09/10 05:09:41;;;;;;;30.80;15.32;;;;;;;15.22;100.00;100834.22;4968914;28;20039;-69
2022/09/10 05:12:07;;;;;;;28.13;15.00;;;;;;;15.34;100.00;100830.50;4958563;28;20046;-68
2022/09/10 05:14:36;;;;;;;29.25;14.63;;;;;;;15.29;100.00;100828.19;4964123;28;20031;-69
2022/09/10 05:17:08;;;;;;;24.05;14.27;;;;;;;15.26;100.00;100830.28;4978975;28;20039;-69
2022/09/10 05:19:34;;;;;;;21.35;14.45;;;;;;;15.32;100.00;100837.00;4970234;28;20042;-68
2022/09/10 05:22:04;;;;;;;26.63;13.50;;;;;;;15.30;100.00;100837.09;4973292;28;20044;-69
2022/09/10 05:24:33;;;;;;;22.33;14.38;;;;;;;15.39;100.00;100833.66;4979928;28;20521;-68
2022/09/10 05:27:00;;;;;;;27.50;13.93;;;;;;;15.31;100.00;100830.75;4971488;28;20597;-69
2022/09/10 05:29:26;;;;;;;24.80;14.55;;;;;;;15.32;100.00;100834.31;4969722;28;20039;-68
2022/09/10 05:31:51;;;;;;;29.45;14.13;;;;;;;15.29;100.00;100830.03;4967396;28;20458;-69
2022/09/10 05:34:17;;;;;;;22.95;14.05;;;;;;;15.31;100.00;100827.19;4969166;28;20053;-68
2022/09/10 05:36:42;;;;;;;29.75;13.55;;;;;;;15.31;100.00;100829.88;4970087;28;20768;-69
2022/09/10 05:39:09;;;;;;;23.80;14.38;;;;;;;15.41;100.00;100829.03;4975695;28;20050;-68
2022/09/10 05:41:36;;;;;;;21.80;13.50;;;;;;;15.46;100.00;100832.16;4981688;28;20121;-69
2022/09/10 05:44:02;;;;;;;24.20;14.38;;;;;;;15.53;100.00;100827.97;4969429;28;20038;-69
2022/09/10 05:46:29;;;;;;;24.63;15.10;;;;;;;15.54;100.00;100828.81;4980113;28;20121;-68
2022/09/10 05:48:58;;;;;;;28.23;14.40;;;;;;;15.59;100.00;100833.81;4972907;28;20035;-69
2022/09/10 05:51:28;;;;;;;23.52;13.02;;;;;;;15.63;100.00;100829.88;4976744;28;20077;-68
2022/09/10 05:53:56;;;;;;;20.40;13.75;;;;;;;15.67;100.00;100826.84;4981693;28;21032;-69
2022/09/10 05:56:26;;;;;;;23.77;12.85;;;;;;;15.71;100.00;100840.84;4965755;28;20074;-69
2022/09/10 05:58:54;;;;;;;21.30;13.45;;;;;;;15.82;100.00;100835.44;4992125;28;20048;-69
2022/09/10 06:01:22;;;;;;;22.20;13.50;;;;;;;15.74;100.00;100835.22;4967866;28;20089;-69
2022/09/10 06:03:49;;;;;;;26.70;14.30;;;;;;;15.76;100.00;100835.94;4970761;28;20060;-68
2022/09/10 06:06:18;;;;;;;25.67;13.57;;;;;;;15.88;100.00;100842.97;4984720;28;20093;-69
2022/09/10 06:09:02;;;;;;;22.55;14.38;;;;;;;15.98;100.00;100838.50;4981187;28;20045;-69
2022/09/10 06:12:05;;;;;;;28.67;13.30;;;;;;;15.96;100.00;100842.31;4964652;28;20409;-69
2022/09/10 06:14:31;;;;;;;21.67;14.50;;;;;;;16.13;100.00;100841.72;4948152;28;20057;-68
2022/09/10 06:16:57;;;;;;;22.70;13.15;;;;;;;16.26;100.00;100849.56;4946025;28;20077;-69
2022/09/10 06:19:24;;;;;;;24.30;13.27;;;;;;;16.14;100.00;100842.56;4942663;28;20518;-69
2022/09/10 06:21:53;;;;;;;21.00;12.50;;;;;;;16.24;100.00;100848.84;4929154;28;20048;-69
2022/09/10 06:24:19;;;;;;;22.90;14.45;;;;;;;16.34;100.00;100846.22;4961049;28;20050;-69
2022/09/10 06:26:48;;;;;;;21.55;13.07;;;;;;;16.44;100.00;100850.66;4943296;28;20058;-68
2022/09/10 06:29:17;;;;;;;23.92;13.18;;;;;;;16.45;100.00;100846.97;4943623;28;20042;-69
2022/09/10 06:31:46;;;;;;;21.77;13.07;;;;;;;16.39;100.00;100846.66;4938205;28;20130;-70
2022/09/10 06:34:17;;;;;;;20.27;13.30;;;;;;;16.38;100.00;100850.34;4929489;28;20073;-69
2022/09/10 06:36:45;;;;;;;28.23;13.87;;;;;;;16.28;100.00;100850.28;4961514;28;20681;-69
2022/09/10 06:39:10;;;;;;;24.08;13.70;;;;;;;16.15;100.00;100852.34;4944046;28;20975;-68
2022/09/10 06:41:53;;;;;;;25.92;13.32;;;;;;;16.02;100.00;100845.34;4941927;28;20042;-69
2022/09/10 06:44:46;;;;;;;27.83;14.93;;;;;;;15.96;100.00;100855.75;4922389;28;20212;-68
2022/09/10 06:47:30;;;;;;;26.80;15.43;;;;;;;15.95;100.00;100854.91;4982301;28;20042;-68
2022/09/10 06:49:55;;;;;;;28.40;16.95;;;;;;;15.86;100.00;100855.69;4976754;28;20050;-69
2022/09/10 06:52:21;;;;;;;33.97;17.60;;;;;;;15.85;100.00;100855.81;4971246;28;20040;-69
2022/09/10 06:54:52;;;;;;;31.00;17.45;;;;;;;15.89;100.00;100844.69;4973449;28;20352;-69
2022/09/10 06:57:30;;;;;;;26.23;14.95;;;;;;;15.77;100.00;100848.44;4979128;28;20118;-69
2022/09/10 06:59:55;;;;;;;31.45;16.60;;;;;;;15.72;100.00;100842.59;4990406;28;20035;-69
2022/09/10 07:02:21;;;;;;;29.15;15.90;;;;;;;15.60;100.00;100846.25;4969576;28;20038;-69
2022/09/10 07:04:50;;;;;;;26.35;16.40;;;;;;;15.58;100.00;100851.78;4973432;28;20039;-69
2022/09/10 07:07:16;;;;;;;29.65;16.48;;;;;;;15.49;100.00;100853.41;4977016;28;20544;-69
2022/09/10 07:09:42;;;;;;;31.58;15.57;;;;;;;15.41;100.00;100855.00;4973211;28;20081;-69
2022/09/10 07:12:10;;;;;;;34.53;16.52;;;;;;;15.39;100.00;100846.22;4969794;28;20034;-69
2022/09/10 07:14:38;;;;;;;30.83;15.80;;;;;;;15.32;100.00;100850.44;4978558;28;20514;-69
2022/09/10 07:17:06;;;;;;;34.85;16.23;;;;;;;15.24;100.00;100846.53;4981131;28;20038;-68
2022/09/10 07:19:37;;;;;;;34.03;15.68;;;;;;;15.23;100.00;100854.72;4978632;28;20084;-69
2022/09/10 07:22:07;;;;;;;28.63;16.52;;;;;;;15.24;100.00;100859.09;4988981;28;20093;-71
2022/09/10 07:24:34;;;;;;;30.60;16.23;;;;;;;15.26;100.00;100854.44;4977295;28;20059;-69
2022/09/10 07:27:05;;;;;;;34.47;17.67;;;;;;;15.20;100.00;100860.34;4981324;28;20038;-69
2022/09/10 07:29:35;;;;;;;36.45;18.73;;;;;;;15.13;100.00;100861.84;4968787;28;20088;-69
2022/09/10 07:32:03;;;;;;;42.45;19.35;;;;;;;15.18;100.00;100859.63;4968840;28;20043;-68
2022/09/10 07:34:29;;;;;;;35.25;18.55;;;;;;;15.16;100.00;100866.94;4968004;28;20070;-69
2022/09/10 07:36:55;;;;;;;32.53;17.42;;;;;;;15.20;100.00;100869.25;4981347;28;20034;-69
2022/09/10 07:39:22;;;;;;;36.17;17.02;;;;;;;15.15;100.00;100868.78;4958286;28;20839;-69
2022/09/10 07:41:47;;;;;;;31.58;16.05;;;;;;;15.22;100.00;100864.63;4990323;28;20053;-68
2022/09/10 07:44:14;;;;;;;36.92;17.55;;;;;;;15.29;100.00;100873.00;4981069;28;20041;-70
2022/09/10 07:46:45;;;;;;;33.05;17.42;;;;;;;15.34;100.00;100865.44;4954926;28;20030;-69
2022/09/10 07:49:14;;;;;;;36.03;18.88;;;;;;;15.25;100.00;100866.19;4969829;28;20053;-69
2022/09/10 07:51:42;;;;;;;38.05;19.27;;;;;;;15.25;100.00;100869.72;4962407;28;20101;-69
2022/09/10 07:54:08;;;;;;;39.13;18.50;;;;;;;15.27;100.00;100865.09;4974479;28;20042;-69
2022/09/10 07:56:40;;;;;;;38.28;19.73;;;;;;;15.23;100.00;100860.09;4974507;28;20102;-69
2022/09/10 07:59:07;;;;;;;38.13;20.02;;;;;;;15.28;100.00;100869.47;4996292;28;20076;-69
2022/09/10 08:01:39;;;;;;;42.03;21.13;;;;;;;15.25;100.00;100872.41;4992346;28;20042;-69
2022/09/10 08:04:06;;;;;;;45.67;21.58;;;;;;;15.33;100.00;100868.25;4981661;28;20041;-69
2022/09/10 08:06:34;;;;;;;43.53;21.15;;;;;;;15.31;100.00;100868.34;4958951;28;20042;-69
2022/09/10 08:09:04;;;;;;;42.72;22.52;;;;;;;15.32;100.00;100866.56;4972758;28;20648;-70
2022/09/10 08:11:33;;;;;;;46.10;22.23;;;;;;;15.40;100.00;100877.50;4968241;28;20130;-70
2022/09/10 08:14:05;;;;;;;49.03;22.60;;;;;;;15.41;100.00;100873.81;4997471;28;20100;-70
2022/09/10 08:16:31;;;;;;;36.23;19.13;;;;;;;15.38;100.00;100877.63;4966939;28;20035;-69
2022/09/10 08:19:03;;;;;;;39.60;20.27;;;;;;;15.41;100.00;100885.44;4970276;28;20155;-69
2022/09/10 08:21:31;;;;;;;47.80;20.85;;;;;;;15.42;100.00;100889.00;4976760;28;20070;-69
2022/09/10 08:23:58;;;;;;;36.00;18.35;;;;;;;15.44;100.00;100892.38;4962320;28;20763;-70
2022/09/10 08:26:26;;;;;;;37.20;19.98;;;;;;;15.52;100.00;100884.56;4980672;28;20030;-69
2022/09/10 08:28:54;;;;;;;32.53;18.30;;;;;;;15.57;100.00;100894.94;4969591;28;20064;-69
2022/09/10 08:31:23;;;;;;;37.50;20.55;;;;;;;15.67;100.00;100880.63;4970884;28;20034;-69
2022/09/10 08:33:57;;;;;;;29.95;16.52;;;;;;;15.74;100.00;100889.00;4991672;28;20060;-70
2022/09/10 08:36:25;;;;;;;38.00;18.23;;;;;;;15.80;100.00;100896.53;4975020;28;20035;-69
2022/09/10 08:38:52;;;;;;;34.67;18.70;;;;;;;15.82;100.00;100891.91;4972376;28;20045;-70
2022/09/10 08:41:18;;;;;;;39.20;19.70;;;;;;;15.82;100.00;100891.06;4986760;28;20429;-70
2022/09/10 08:44:06;;;;;;;37.08;19.23;;;;;;;15.79;100.00;100894.84;4970216;28;20122;-70
2022/09/10 08:46:47;;;;;;;34.92;18.38;;;;;;;15.93;100.00;100891.00;4986905;28;20031;-70
2022/09/10 08:49:29;;;;;;;34.47;18.17;;;;;;;15.85;100.00;100893.47;4964051;28;20035;-71
2022/09/10 08:52:11;;;;;;;33.97;19.92;;;;;;;15.98;100.00;100888.75;4974434;28;20038;-69
2022/09/10 08:54:44;;;;;;;32.55;19.35;;;;;;;16.00;100.00;100900.22;4976856;28;20121;-70
2022/09/10 08:57:37;;;;;;;38.38;18.42;;;;;;;16.05;100.00;100895.31;4979123;28;20119;-68
2022/09/10 09:00:11;;;;;;;37.20;19.35;;;;;;;16.12;100.00;100899.19;4981093;28;20050;-70
2022/09/10 09:02:51;;;;;;;34.75;20.27;;;;;;;16.18;100.00;100904.06;5001750;28;20046;-72
2022/09/10 09:05:22;;;;;;;36.33;19.75;;;;;;;16.25;100.00;100912.44;4980444;28;20114;-70
2022/09/10 09:07:57;;;;;;;36.15;19.75;;;;;;;16.17;100.00;100907.72;4964217;28;20080;-69
2022/09/10 09:10:23;;;;;;;37.42;19.17;;;;;;;16.27;100.00;100913.19;4986898;28;20147;-70
2022/09/10 09:13:27;;;;;;;33.20;17.27;;;;;;;16.30;100.00;100912.91;4957993;28;20064;-69
2022/09/10 09:16:27;;;;;;;31.17;18.75;;;;;;;16.33;100.00;100918.03;4999422;28;20034;-70
2022/09/10 09:19:05;;;;;;;33.30;18.23;;;;;;;16.38;100.00;100921.16;4979331;28;20038;-70
2022/09/10 09:21:49;;;;;;;34.55;18.83;;;;;;;16.31;100.00;100917.28;4979627;28;20038;-69
2022/09/10 09:24:44;;;;;;;29.30;18.58;;;;;;;16.37;100.00;100910.53;4983427;28;20043;-69
2022/09/10 09:27:15;;;;;;;32.55;18.10;;;;;;;16.52;100.00;100918.13;4981403;28;20039;-69
2022/09/10 09:30:05;;;;;;;31.77;18.45;;;;;;;16.69;100.00;100916.66;4983062;28;20038;-71
2022/09/10 09:32:38;;;;;;;33.70;19.25;;;;;;;16.78;100.00;100915.88;4980493;28;20525;-69
2022/09/10 09:35:29;;;;;;;34.90;18.35;;;;;;;16.85;100.00;100918.88;4973218;28;20442;-69
2022/09/10 09:38:09;;;;;;;34.95;18.80;;;;;;;17.10;100.00;100917.53;5001576;28;20038;-69
2022/09/10 09:40:55;;;;;;;28.38;17.55;;;;;;;17.17;100.00;100929.50;4976579;28;20054;-69
2022/09/10 09:43:34;;;;;;;27.55;16.85;;;;;;;17.06;100.00;100925.03;4990285;28;20163;-69
2022/09/10 09:46:02;;;;;;;27.65;16.75;;;;;;;17.34;100.00;100922.56;4980037;28;20058;-69
2022/09/10 09:48:38;;;;;;;29.77;17.67;;;;;;;17.19;100.00;100926.66;4983938;28;20041;-69
2022/09/10 09:51:07;;;;;;;;;;;;;;;17.33;100.00;100918.16;4991168;28;20050;-69
2022/09/10 09:53:33;;;;;;;26.30;17.20;;;;;;;17.49;100.00;100925.72;4984654;28;19925;-70
2022/09/10 09:56:06;;;;;;;33.15;17.80;;;;;;;17.69;100.00;100908.56;4983014;28;20038;-70
2022/09/10 09:58:34;;;;;;;31.55;18.73;;;;;;;17.58;100.00;100916.78;4983950;28;20137;-69
2022/09/10 10:01:08;;;;;;;25.63;16.83;;;;;;;17.50;100.00;100913.94;4985490;28;20443;-69
2022/09/10 10:03:51;;;;;;;27.35;18.40;;;;;;;17.64;100.00;100908.13;4978629;28;20053;-69
2022/09/10 10:06:25;;;;;;;27.38;17.40;;;;;;;17.70;100.00;100912.94;4962496;28;20149;-68
2022/09/10 10:08:56;;;;;;;26.27;16.45;;;;;;;17.76;100.00;100917.81;4994467;28;20116;-72
2022/09/10 10:11:38;;;;;;;25.80;16.48;;;;;;;17.77;100.00;100921.34;4985319;28;20039;-73
2022/09/10 10:14:37;;;;;;;30.15;17.85;;;;;;;17.44;100.00;100931.53;4992639;28;20034;-69
2022/09/10 10:17:23;;;;;;;28.30;18.60;;;;;;;17.54;100.00;100923.44;4971411;28;20597;-70
2022/09/10 10:20:01;;;;;;;27.13;18.52;;;;;;;17.63;100.00;100914.53;4982320;28;20030;-69
2022/09/10 10:22:29;;;;;;;26.92;18.08;;;;;;;17.67;100.00;100915.06;4982268;28;20076;-69
2022/09/10 10:24:55;;;;;;;30.13;19.67;;;;;;;17.81;100.00;100918.22;4968597;28;20125;-68
2022/09/10 10:27:37;;;;;;;28.13;19.27;;;;;;;17.84;100.00;100923.34;4998196;28;20057;-71
2022/09/10 10:30:11;;;;;;;24.40;17.52;;;;;;;17.67;100.00;100915.06;4990912;28;20044;-69
2022/09/10 10:32:57;;;;;;;31.27;19.48;;;;;;;17.64;100.00;100909.97;4983394;28;20940;-69
2022/09/10 10:35:37;;;;;;;35.03;21.88;;;;;;;17.61;100.00;100913.78;4974915;28;20054;-68
2022/09/10 10:38:39;;;;;;;33.35;21.48;;;;;;;17.69;100.00;100913.94;4980640;28;20183;-69
2022/09/10 10:41:26;;;;;;;31.45;21.10;;;;;;;17.64;100.00;100921.63;4982576;28;20057;-68
2022/09/10 10:43:57;;;;;;;30.33;20.70;;;;;;;17.52;100.00;100918.22;4976019;28;20046;-71
2022/09/10 10:46:57;;;;;;;34.97;21.58;;;;;;;17.31;100.00;100930.91;4978039;28;20038;-69
2022/09/10 10:49:44;;;;;;;38.20;21.30;;;;;;;17.38;100.00;100933.94;4972462;28;20078;-68
2022/09/10 10:52:48;;;;;;;33.65;20.52;;;;;;;17.37;100.00;100933.09;4970299;28;20046;-69
2022/09/10 10:55:31;;;;;;;33.80;20.75;;;;;;;17.49;100.00;100937.34;4903588;29;20048;-69
2022/09/10 10:58:23;;;;;;;36.42;22.35;;;;;;;17.45;100.00;100946.69;4887977;29;20047;-70
2022/09/10 11:00:56;;;;;;;;;;;;;;;17.36;100.00;100942.13;4910019;29;20040;-68
2022/09/10 11:03:34;;;;;;;30.08;20.33;;;;;;;17.45;100.00;100946.69;4894957;29;19967;-69
2022/09/10 11:06:10;;;;;;;35.28;20.80;;;;;;;17.52;100.00;100945.16;4901770;29;20060;-69
2022/09/10 11:08:50;;;;;;;33.17;19.00;;;;;;;17.56;100.00;100951.97;4904045;29;20048;-69
2022/09/10 11:11:17;;;;;;;34.50;21.23;;;;;;;17.86;100.00;100951.03;4896724;29;21024;-68
2022/09/10 11:14:31;;;;;;;31.73;19.88;;;;;;;18.13;100.00;100954.03;4890429;29;20048;-73
2022/09/10 11:17:09;;;;;;;30.08;19.48;;;;;;;18.71;100.00;100948.53;4797226;29;20042;-69
2022/09/10 11:19:52;;;;;;;25.67;17.73;;;;;;;18.19;100.00;100962.41;4808012;29;20062;-69
2022/09/10 11:22:24;;;;;;;27.15;17.73;;;;;;;18.28;100.00;100952.59;4812812;29;20053;-70
2022/09/10 11:24:56;;;;;;;29.25;19.02;;;;;;;18.37;100.00;100947.19;4815519;29;20141;-68
2022/09/10 11:27:26;;;;;;;;;;;;;;;18.17;100.00;100942.78;4903299;29;20044;-68